createdAt,value
2022-11-02T00:00:31.925Z,10.35
2022-11-02T00:03:00.235Z,9.32
2022-11-02T00:05:28.390Z,9.40
2022-11-02T00:07:56.650Z,8.75
2022-11-02T00:10:25.705Z,8.63
2022-11-02T00:12:56.968Z,9.07
2022-11-02T00:15:27.447Z,10.70
2022-11-02T00:17:59.646Z,9.88
2022-11-02T00:20:27.765Z,9.52
2022-11-02T00:22:58.913Z,9.15
2022-11-02T00:25:28.475Z,9.38
2022-11-02T00:27:57.875Z,9.25
2022-11-02T00:30:25.905Z,10.63
2022-11-02T00:32:53.957Z,9.63
2022-11-02T00:35:21.979Z,9.30
2022-11-02T00:37:50.435Z,10.45
2022-11-02T00:40:18.583Z,9.68
2022-11-02T00:42:47.571Z,10.25
2022-11-02T00:45:18.632Z,11.50
2022-11-02T00:47:47.690Z,10.18
2022-11-02T00:50:15.686Z,15.15
2022-11-02T00:52:43.826Z,11.35
2022-11-02T00:55:12.687Z,14.48
2022-11-02T00:57:43.498Z,13.07
2022-11-02T01:00:13.378Z,13.07
2022-11-02T01:02:43.547Z,12.00
2022-11-02T01:05:13.217Z,11.05
2022-11-02T01:07:41.649Z,10.75
2022-11-02T01:10:11.458Z,10.73
2022-11-02T01:12:41.229Z,9.38
2022-11-02T01:15:12.335Z,9.55
2022-11-02T01:17:40.607Z,9.35
2022-11-02T01:20:11.388Z,11.00
2022-11-02T01:22:39.443Z,9.02
2022-11-02T01:25:08.058Z,13.27
2022-11-02T01:27:36.164Z,12.60
2022-11-02T01:30:04.854Z,11.60
2022-11-02T01:32:33.227Z,11.15
2022-11-02T01:35:02.810Z,11.32
2022-11-02T01:37:32.252Z,11.82
2022-11-02T01:40:00.291Z,10.68
2022-11-02T01:42:29.066Z,10.38
2022-11-02T01:44:57.778Z,10.18
2022-11-02T01:47:31.290Z,10.18
2022-11-02T01:50:05.829Z,10.95
2022-11-02T01:52:37.579Z,11.02
2022-11-02T01:55:11.095Z,11.05
2022-11-02T01:57:41.294Z,11.30
2022-11-02T02:00:11.932Z,11.25
2022-11-02T02:02:48.530Z,10.55
2022-11-02T02:05:18.777Z,11.82
2022-11-02T02:07:49.109Z,12.43
2022-11-02T02:10:17.351Z,12.25
2022-11-02T02:12:45.605Z,13.07
2022-11-02T02:15:17.711Z,11.98
2022-11-02T02:17:51.416Z,12.27
2022-11-02T02:20:31.700Z,12.13
2022-11-02T02:23:35.131Z,12.23
2022-11-02T02:26:39.567Z,9.57
2022-11-02T02:29:15.355Z,10.25
2022-11-02T02:31:47.964Z,9.55
2022-11-02T02:34:20.574Z,9.98
2022-11-02T02:36:52.002Z,9.88
2022-11-02T02:39:25.147Z,9.93
2022-11-02T02:42:00.374Z,10.60
2022-11-02T02:47:04.484Z,11.65
2022-11-02T02:49:39.289Z,11.68
2022-11-02T02:52:08.511Z,12.00
2022-11-02T02:54:39.981Z,13.50
2022-11-02T02:57:10.876Z,13.40
2022-11-02T02:59:43.555Z,13.85
2022-11-02T03:02:18.627Z,12.55
2022-11-02T03:04:46.930Z,13.13
2022-11-02T03:07:20.337Z,13.52
2022-11-02T03:09:54.186Z,12.65
2022-11-02T03:12:33.352Z,13.52
2022-11-02T03:15:11.283Z,12.75
2022-11-02T03:17:53.849Z,13.23
2022-11-02T03:20:27.782Z,13.18
2022-11-02T03:25:34.839Z,13.35
2022-11-02T03:28:20.318Z,15.18
2022-11-02T03:30:56.839Z,15.63
2022-11-02T03:33:31.262Z,16.52
2022-11-02T03:36:07.420Z,16.73
2022-11-02T03:38:42.513Z,15.80
2022-11-02T03:43:41.559Z,16.15
2022-11-02T03:46:12.622Z,14.45
2022-11-02T03:48:45.197Z,15.23
2022-11-02T03:51:19.860Z,16.13
2022-11-02T03:53:54.376Z,16.30
2022-11-02T03:56:27.032Z,15.48
2022-11-02T03:58:57.391Z,15.20
2022-11-02T04:01:28.776Z,15.82
2022-11-02T04:03:57.911Z,13.88
2022-11-02T04:06:27.734Z,14.95
2022-11-02T04:08:57.627Z,15.70
2022-11-02T04:11:42.950Z,15.20
2022-11-02T04:14:31.511Z,14.23
2022-11-02T04:17:19.738Z,14.20
2022-11-02T04:19:51.317Z,13.48
2022-11-02T04:22:39.603Z,13.43
2022-11-02T04:25:18.888Z,13.32
2022-11-02T04:28:09.138Z,12.20
2022-11-02T04:30:42.617Z,11.95
2022-11-02T04:33:29.481Z,10.80
2022-11-02T04:36:06.490Z,10.38
2022-11-02T04:38:43.227Z,9.32
2022-11-02T04:41:43.720Z,9.80
2022-11-02T04:44:28.799Z,9.35
2022-11-02T04:47:11.921Z,9.93
2022-11-02T04:49:41.290Z,9.60
2022-11-02T04:52:14.430Z,9.65
2022-11-02T04:54:47.318Z,9.75
2022-11-02T04:57:15.333Z,8.90
2022-11-02T04:59:44.674Z,9.00
2022-11-02T05:02:12.834Z,7.95
2022-11-02T05:04:43.598Z,9.45
2022-11-02T05:07:12.873Z,8.23
2022-11-02T05:09:42.289Z,8.68
2022-11-02T05:12:11.193Z,9.02
2022-11-02T05:14:39.394Z,8.07
2022-11-02T05:17:08.321Z,7.88
2022-11-02T05:19:38.482Z,8.23
2022-11-02T05:22:08.209Z,7.50
2022-11-02T05:24:36.182Z,8.10
2022-11-02T05:27:05.776Z,9.13
2022-11-02T05:29:36.449Z,7.95
2022-11-02T05:32:05.412Z,8.93
2022-11-02T05:34:34.038Z,8.80
2022-11-02T05:37:02.103Z,8.88
2022-11-02T05:39:31.550Z,9.50
2022-11-02T05:41:59.946Z,9.35
2022-11-02T05:44:28.877Z,8.88
2022-11-02T05:46:56.992Z,8.57
2022-11-02T05:49:25.470Z,8.73
2022-11-02T05:51:53.882Z,8.48
2022-11-02T05:54:22.222Z,12.27
2022-11-02T05:56:51.829Z,11.25
2022-11-02T05:59:19.824Z,9.35
2022-11-02T06:01:48.121Z,10.70
2022-11-02T06:04:16.209Z,10.20
2022-11-02T06:06:44.333Z,9.25
2022-11-02T06:09:12.476Z,9.30
2022-11-02T06:11:40.492Z,8.63
2022-11-02T06:14:10.047Z,8.60
2022-11-02T06:16:38.067Z,9.60
2022-11-02T06:19:06.067Z,9.30
2022-11-02T06:21:34.856Z,9.40
2022-11-02T06:24:02.837Z,9.10
2022-11-02T06:26:30.853Z,8.55
2022-11-02T06:28:59.597Z,7.60
2022-11-02T06:31:29.127Z,8.90
2022-11-02T06:33:58.563Z,9.82
2022-11-02T06:36:26.564Z,9.23
2022-11-02T06:38:54.535Z,9.75
2022-11-02T06:41:22.619Z,9.15
2022-11-02T06:43:50.683Z,8.68
2022-11-02T06:46:19.843Z,8.98
2022-11-02T06:48:49.299Z,7.88
2022-11-02T06:51:17.423Z,8.27
2022-11-02T06:53:45.405Z,7.72
2022-11-02T06:56:13.637Z,8.30
2022-11-02T06:58:41.795Z,7.40
2022-11-02T07:01:10.205Z,8.43
2022-11-02T07:03:38.387Z,7.20
2022-11-02T07:06:12.911Z,7.38
2022-11-02T07:08:42.763Z,7.57
2022-11-02T07:11:14.636Z,6.40
2022-11-02T07:13:42.685Z,5.57
2022-11-02T07:16:10.758Z,5.38
2022-11-02T07:18:38.862Z,5.35
2022-11-02T07:21:10.689Z,4.63
2022-11-02T07:23:38.811Z,5.25
2022-11-02T07:26:07.044Z,4.63
2022-11-02T07:28:36.920Z,4.88
2022-11-02T07:31:05.413Z,4.45
2022-11-02T07:33:33.353Z,4.85
2022-11-02T07:36:05.364Z,4.50
2022-11-02T07:38:34.771Z,4.30
2022-11-02T07:41:03.194Z,3.90
2022-11-02T07:43:31.353Z,4.22
2022-11-02T07:46:10.397Z,3.88
2022-11-02T07:48:38.472Z,3.80
2022-11-02T07:51:07.723Z,4.28
2022-11-02T07:53:37.120Z,4.07
2022-11-02T07:56:05.888Z,3.75
2022-11-02T07:58:33.982Z,3.00
2022-11-02T08:01:02.668Z,3.85
2022-11-02T08:03:30.827Z,3.25
2022-11-02T08:06:04.879Z,3.40
2022-11-02T08:08:32.866Z,3.83
2022-11-02T08:11:07.549Z,3.20
2022-11-02T08:13:37.774Z,2.83
2022-11-02T08:16:07.832Z,2.65
2022-11-02T08:18:35.849Z,2.50
2022-11-02T08:21:04.331Z,2.60
2022-11-02T08:23:32.418Z,2.35
2022-11-02T08:26:00.882Z,2.35
2022-11-02T08:28:35.527Z,2.22
2022-11-02T08:31:03.563Z,2.40
2022-11-02T08:33:31.647Z,2.22
2022-11-02T08:36:04.044Z,2.95
2022-11-02T08:38:32.329Z,2.33
2022-11-02T08:41:00.317Z,2.00
2022-11-02T08:43:30.092Z,1.90
2022-11-02T08:46:14.445Z,2.10
2022-11-02T08:48:43.450Z,1.80
2022-11-02T08:51:11.532Z,2.10
2022-11-02T08:53:39.733Z,2.17
2022-11-02T08:56:08.290Z,2.13
2022-11-02T08:58:37.662Z,2.58
2022-11-02T09:01:06.290Z,2.03
2022-11-02T09:03:34.339Z,1.80
2022-11-02T09:06:03.300Z,2.40
2022-11-02T09:08:31.763Z,2.00
2022-11-02T09:11:01.570Z,2.00
2022-11-02T09:13:30.095Z,2.08
2022-11-02T09:16:01.334Z,2.30
2022-11-02T09:18:30.080Z,2.05
2022-11-02T09:20:58.482Z,2.08
2022-11-02T09:23:26.623Z,1.88
2022-11-02T09:25:55.079Z,1.77
2022-11-02T09:28:23.183Z,1.77
2022-11-02T09:30:51.448Z,2.40
2022-11-02T09:33:21.241Z,1.92
2022-11-02T09:35:55.179Z,1.67
2022-11-02T09:38:24.307Z,1.60
2022-11-02T09:41:02.135Z,2.20
2022-11-02T09:43:41.595Z,1.80
2022-11-02T09:46:14.685Z,2.10
2022-11-02T09:48:47.442Z,1.92
2022-11-02T09:51:19.246Z,1.48
2022-11-02T09:53:55.850Z,2.05
2022-11-02T09:56:24.872Z,1.63
2022-11-02T09:58:59.476Z,1.77
2022-11-02T10:01:38.908Z,1.88
2022-11-02T10:04:42.761Z,1.90
2022-11-02T10:07:21.648Z,1.50
2022-11-02T10:09:56.224Z,1.88
2022-11-02T10:12:31.742Z,1.65
2022-11-02T10:15:04.810Z,1.58
2022-11-02T10:17:37.416Z,1.70
2022-11-02T10:20:16.978Z,1.52
2022-11-02T10:22:48.288Z,1.52
2022-11-02T10:25:18.307Z,1.90
2022-11-02T10:27:51.306Z,1.42
2022-11-02T10:30:21.883Z,1.25
2022-11-02T10:32:54.036Z,1.50
2022-11-02T10:35:41.138Z,1.35
2022-11-02T10:38:34.439Z,2.50
2022-11-02T10:41:18.768Z,1.90
2022-11-02T10:44:03.181Z,2.65
2022-11-02T10:46:43.768Z,1.52
2022-11-02T10:49:17.888Z,1.40
2022-11-02T10:51:49.564Z,2.33
2022-11-02T10:54:23.986Z,1.90
2022-11-02T10:56:59.859Z,1.58
2022-11-02T10:59:28.082Z,1.60
2022-11-02T11:02:10.822Z,1.67
2022-11-02T11:04:39.096Z,2.15
2022-11-02T11:07:14.414Z,2.92
2022-11-02T11:09:54.050Z,2.53
2022-11-02T11:12:25.805Z,1.77
2022-11-02T11:20:37.496Z,2.60
2022-11-02T11:23:11.229Z,2.10
2022-11-02T11:25:42.297Z,2.10
2022-11-02T11:28:23.834Z,1.75
2022-11-02T11:31:03.906Z,2.03
2022-11-02T11:33:33.990Z,1.98
2022-11-02T11:36:02.481Z,2.30
2022-11-02T11:38:30.652Z,2.47
2022-11-02T11:41:01.029Z,2.20
2022-11-02T11:43:34.968Z,2.10
2022-11-02T11:46:07.041Z,2.03
2022-11-02T11:48:39.088Z,3.15
2022-11-02T11:51:26.689Z,2.15
2022-11-02T11:54:25.359Z,1.63
2022-11-02T11:56:56.592Z,3.53
2022-11-02T11:59:27.684Z,1.42
2022-11-02T12:01:59.091Z,1.50
2022-11-02T12:04:35.460Z,1.50
2022-11-02T12:07:41.559Z,1.40
2022-11-02T12:10:19.685Z,1.50
2022-11-02T12:13:12.198Z,1.95
2022-11-02T12:15:52.355Z,3.58
2022-11-02T12:18:34.486Z,2.10
2022-11-02T12:21:23.683Z,2.10
2022-11-02T12:24:08.846Z,3.13
2022-11-02T12:29:27.336Z,2.10
2022-11-02T12:32:09.708Z,1.80
2022-11-02T12:35:23.010Z,2.25
2022-11-02T12:38:03.957Z,2.05
2022-11-02T12:40:46.495Z,2.17
2022-11-02T12:43:32.503Z,1.90
2022-11-02T12:46:08.502Z,1.65
2022-11-02T12:48:48.399Z,1.88
2022-11-02T12:51:22.857Z,2.05
2022-11-02T12:53:56.020Z,1.80
2022-11-02T12:56:28.745Z,2.08
2022-11-02T12:58:57.083Z,2.15
2022-11-02T13:01:32.870Z,1.80
2022-11-02T13:04:10.898Z,1.40
2022-11-02T13:06:44.471Z,1.83
2022-11-02T13:09:19.827Z,2.03
2022-11-02T13:11:52.398Z,2.05
2022-11-02T13:14:22.870Z,1.75
2022-11-02T13:16:58.565Z,1.35
2022-11-02T13:19:32.092Z,1.70
2022-11-02T13:22:01.461Z,2.17
2022-11-02T13:24:34.614Z,1.67
2022-11-02T13:27:22.013Z,2.40
2022-11-02T13:29:59.132Z,2.10
2022-11-02T13:32:34.520Z,1.60
2022-11-02T13:35:07.596Z,2.10
2022-11-02T13:37:39.551Z,1.95
2022-11-02T13:40:15.870Z,2.30
2022-11-02T13:43:20.664Z,2.10
2022-11-02T13:46:06.094Z,3.00
2022-11-02T13:48:51.766Z,2.53
2022-11-02T13:51:27.356Z,2.40
2022-11-02T13:54:46.094Z,2.20
2022-11-02T13:57:32.841Z,3.45
2022-11-02T14:00:02.419Z,3.10
2022-11-02T14:02:37.726Z,2.63
2022-11-02T14:05:09.562Z,2.70
2022-11-02T14:07:41.915Z,2.25
2022-11-02T14:10:17.268Z,4.18
2022-11-02T14:12:46.755Z,10.73
2022-11-02T14:15:42.695Z,4.82
2022-11-02T14:18:28.642Z,3.53
2022-11-02T14:20:58.558Z,2.50
2022-11-02T14:23:39.832Z,2.22
2022-11-02T14:26:35.730Z,1.90
2022-11-02T14:29:38.492Z,2.40
2022-11-02T14:32:10.366Z,2.83
2022-11-02T14:34:56.603Z,2.83
2022-11-02T14:38:00.116Z,2.20
2022-11-02T14:40:36.804Z,6.22
2022-11-02T14:43:30.551Z,4.07
2022-11-02T14:46:17.710Z,3.13
2022-11-02T14:48:48.868Z,2.67
2022-11-02T14:51:22.214Z,2.72
2022-11-02T14:53:57.165Z,3.25
2022-11-02T14:58:57.741Z,2.53
2022-11-02T15:01:27.334Z,3.17
2022-11-02T15:03:55.617Z,3.35
2022-11-02T15:06:26.987Z,4.25
2022-11-02T15:08:59.613Z,4.10
2022-11-02T15:11:49.605Z,4.63
2022-11-02T15:14:52.756Z,3.13
2022-11-02T15:17:59.564Z,3.60
2022-11-02T15:20:33.435Z,3.03
2022-11-02T15:23:31.445Z,2.88
2022-11-02T15:26:06.224Z,4.00
2022-11-02T15:28:35.916Z,3.75
2022-11-02T15:31:08.770Z,3.60
2022-11-02T15:33:40.081Z,5.72
2022-11-02T15:36:14.487Z,3.72
2022-11-02T15:38:47.968Z,6.57
2022-11-02T15:41:28.954Z,8.82
2022-11-02T15:44:23.145Z,8.15
2022-11-02T15:47:00.654Z,7.38
2022-11-02T15:49:44.892Z,7.22
2022-11-02T15:52:21.668Z,6.03
2022-11-02T15:55:08.232Z,6.82
2022-11-02T15:57:45.432Z,9.10
2022-11-02T16:00:18.172Z,10.35
2022-11-02T16:02:48.788Z,8.25
2022-11-02T16:05:21.240Z,8.00
2022-11-02T16:08:10.039Z,7.93
2022-11-02T16:10:38.972Z,7.70
2022-11-02T16:13:17.444Z,7.75
2022-11-02T16:15:46.877Z,8.20
2022-11-02T16:18:25.967Z,11.18
2022-11-02T16:20:56.095Z,12.48
2022-11-02T16:23:28.900Z,10.43
2022-11-02T16:26:01.349Z,8.82
2022-11-02T16:28:33.924Z,8.23
2022-11-02T16:31:12.469Z,7.68
2022-11-02T16:33:45.118Z,7.78
2022-11-02T16:36:16.759Z,8.13
2022-11-02T16:38:49.742Z,7.63
2022-11-02T16:41:18.377Z,16.95
2022-11-02T16:43:50.909Z,16.02
2022-11-02T16:46:19.035Z,17.23
2022-11-02T16:49:15.091Z,17.52
2022-11-02T16:51:50.977Z,19.60
2022-11-02T16:54:30.645Z,17.45
2022-11-02T16:57:07.170Z,18.90
2022-11-02T16:59:50.514Z,17.67
2022-11-02T17:02:20.174Z,17.05
2022-11-02T17:07:26.853Z,13.57
2022-11-02T17:09:58.526Z,14.73
2022-11-02T17:12:33.790Z,13.38
2022-11-02T17:15:05.385Z,12.38
2022-11-02T17:17:39.306Z,13.38
2022-11-02T17:20:18.434Z,12.07
2022-11-02T17:22:54.607Z,11.05
2022-11-02T17:25:26.834Z,10.52
2022-11-02T17:28:02.068Z,11.93
2022-11-02T17:31:08.393Z,9.98
2022-11-02T17:33:36.921Z,8.82
2022-11-02T17:36:07.689Z,20.42
2022-11-02T17:38:36.811Z,13.98
2022-11-02T17:41:26.231Z,11.07
2022-11-02T17:43:53.327Z,11.73
2022-11-02T17:46:23.040Z,10.15
2022-11-02T17:48:51.227Z,11.93
2022-11-02T17:51:22.059Z,17.00
2022-11-02T17:53:50.333Z,19.77
2022-11-02T17:56:18.432Z,18.13
2022-11-02T17:58:46.648Z,17.05
2022-11-02T18:01:15.412Z,16.55
2022-11-02T18:03:44.884Z,14.27
2022-11-02T18:06:12.983Z,28.98
2022-11-02T18:08:58.663Z,12.85
2022-11-02T18:11:26.954Z,14.15
2022-11-02T18:13:55.175Z,14.43
2022-11-02T18:16:23.400Z,15.55
2022-11-02T18:18:52.849Z,14.32
2022-11-02T18:21:20.981Z,21.60
2022-11-02T18:23:49.940Z,19.08
2022-11-02T18:26:18.040Z,18.85
2022-11-02T18:28:46.100Z,17.80
2022-11-02T18:31:15.231Z,15.60
2022-11-02T18:33:43.585Z,14.18
2022-11-02T18:36:13.037Z,18.67
2022-11-02T18:38:42.334Z,16.27
2022-11-02T18:41:25.403Z,18.42
2022-11-02T18:43:59.082Z,28.73
2022-11-02T18:46:31.662Z,15.38
2022-11-02T18:48:59.790Z,14.60
2022-11-02T18:51:29.669Z,13.75
2022-11-02T18:54:00.473Z,13.70
2022-11-02T18:56:29.449Z,13.30
2022-11-02T18:58:58.619Z,14.15
2022-11-02T19:01:29.293Z,13.80
2022-11-02T19:03:58.821Z,14.45
2022-11-02T19:06:47.651Z,15.27
2022-11-02T19:09:21.515Z,15.93
2022-11-02T19:11:53.409Z,16.38
2022-11-02T19:14:22.943Z,16.38
2022-11-02T19:16:51.823Z,17.00
2022-11-02T19:19:20.495Z,17.17
2022-11-02T19:21:49.925Z,18.10
2022-11-02T19:24:17.968Z,18.30
2022-11-02T19:26:45.984Z,19.83
2022-11-02T19:29:14.307Z,20.90
2022-11-02T19:31:44.242Z,20.92
2022-11-02T19:34:12.565Z,21.67
2022-11-02T19:36:41.287Z,20.40
2022-11-02T19:39:11.199Z,20.55
2022-11-02T19:41:39.870Z,20.15
2022-11-02T19:44:08.315Z,21.27
2022-11-02T19:46:37.257Z,22.33
2022-11-02T19:49:05.314Z,21.15
2022-11-02T19:51:33.424Z,21.70
2022-11-02T19:54:03.585Z,21.50
2022-11-02T19:56:34.498Z,20.52
2022-11-02T19:59:03.201Z,20.48
2022-11-02T20:01:32.620Z,21.50
2022-11-02T20:04:00.790Z,22.15
2022-11-02T20:06:33.095Z,27.13
2022-11-02T20:09:04.311Z,25.30
2022-11-02T20:11:34.081Z,23.30
2022-11-02T20:14:03.638Z,22.15
2022-11-02T20:16:32.281Z,22.92
2022-11-02T20:19:00.592Z,20.33
2022-11-02T20:21:35.479Z,21.58
2022-11-02T20:24:07.841Z,21.27
2022-11-02T20:26:38.818Z,21.60
2022-11-02T20:29:10.795Z,20.65
2022-11-02T20:31:44.189Z,23.73
2022-11-02T20:34:13.985Z,24.25
2022-11-02T20:36:42.047Z,22.25
2022-11-02T20:39:11.052Z,22.65
2022-11-02T20:41:40.518Z,23.70
2022-11-02T20:44:08.582Z,24.40
2022-11-02T20:46:40.971Z,27.20
2022-11-02T20:49:20.421Z,29.23
2022-11-02T20:51:51.157Z,29.52
2022-11-02T20:54:19.985Z,26.77
2022-11-02T20:56:49.804Z,27.30
2022-11-02T20:59:18.400Z,29.45
2022-11-02T21:01:46.555Z,26.45
2022-11-02T21:04:20.338Z,24.75
2022-11-02T21:09:17.359Z,28.05
2022-11-02T21:12:04.836Z,24.73
2022-11-02T21:14:34.174Z,23.27
2022-11-02T21:17:03.165Z,22.58
2022-11-02T21:19:31.242Z,25.27
2022-11-02T21:22:00.320Z,27.75
2022-11-02T21:24:29.419Z,26.10
2022-11-02T21:26:57.666Z,27.75
2022-11-02T21:29:25.751Z,26.73
2022-11-02T21:31:55.342Z,29.88
2022-11-02T21:34:23.346Z,27.35
2022-11-02T21:36:52.215Z,26.45
2022-11-02T21:39:20.310Z,25.00
2022-11-02T21:41:49.184Z,25.83
2022-11-02T21:44:18.368Z,25.63
2022-11-02T21:46:46.419Z,18.70
2022-11-02T21:49:15.850Z,22.35
2022-11-02T21:51:43.939Z,23.20
2022-11-02T21:54:12.391Z,22.80
2022-11-02T21:56:40.749Z,23.75
2022-11-02T21:59:09.479Z,20.83
2022-11-02T22:01:49.340Z,21.50
2022-11-02T22:04:21.724Z,22.92
2022-11-02T22:06:50.672Z,23.02
2022-11-02T22:09:19.064Z,24.42
2022-11-02T22:11:47.213Z,23.40
2022-11-02T22:14:14.684Z,24.35
2022-11-02T22:16:44.073Z,23.05
2022-11-02T22:19:14.193Z,23.27
2022-11-02T22:21:45.268Z,22.85
2022-11-02T22:24:13.620Z,21.63
2022-11-02T22:26:42.078Z,20.13
2022-11-02T22:29:10.596Z,21.20
2022-11-02T22:31:40.260Z,23.20
2022-11-02T22:34:10.453Z,24.23
2022-11-02T22:36:40.218Z,24.00
2022-11-02T22:39:12.026Z,20.92
2022-11-02T22:41:41.615Z,21.50
2022-11-02T22:44:11.027Z,21.27
2022-11-02T22:46:40.683Z,21.67
2022-11-02T22:49:09.954Z,20.35
2022-11-02T22:51:40.480Z,20.48
2022-11-02T22:54:13.847Z,20.50
2022-11-02T22:56:43.331Z,20.88
2022-11-02T22:59:12.354Z,22.08
2022-11-02T23:01:40.979Z,21.33
2022-11-02T23:04:09.572Z,19.95
2022-11-02T23:06:38.363Z,19.73
2022-11-02T23:09:07.003Z,17.17
2022-11-02T23:11:37.084Z,14.98
2022-11-02T23:14:07.392Z,15.25
2022-11-02T23:16:37.102Z,17.05
2022-11-02T23:19:30.517Z,16.45
2022-11-02T23:22:21.359Z,17.83
2022-11-02T23:25:08.689Z,18.50
2022-11-02T23:28:00.495Z,19.10
2022-11-02T23:30:48.457Z,20.30
2022-11-02T23:33:17.265Z,20.63
2022-11-02T23:36:04.563Z,18.52
2022-11-02T23:38:46.636Z,17.77
2022-11-02T23:41:14.946Z,16.52
2022-11-02T23:43:44.467Z,15.63
2022-11-02T23:46:12.593Z,15.77
2022-11-02T23:48:42.706Z,15.20
2022-11-02T23:51:28.478Z,16.30
2022-11-02T23:54:14.535Z,16.70
2022-11-02T23:56:45.675Z,17.30
2022-11-02T23:59:17.118Z,17.85
